sensor_id;sensor_type;location;lat;lon;timestamp;temperature;humidity
11647;DHT22;5880;52.342;9.662;2024-03-02T00:00:51;11.90;56.80
11647;DHT22;5880;52.342;9.662;2024-03-02T00:03:18;11.90;56.80
11647;DHT22;5880;52.342;9.662;2024-03-02T00:05:49;11.90;56.80
11647;DHT22;5880;52.342;9.662;2024-03-02T00:08:22;11.90;57.00
11647;DHT22;5880;52.342;9.662;2024-03-02T00:10:51;11.90;57.00
11647;DHT22;5880;52.342;9.662;2024-03-02T00:13:20;11.90;56.90
11647;DHT22;5880;52.342;9.662;2024-03-02T00:15:54;11.90;57.10
11647;DHT22;5880;52.342;9.662;2024-03-02T00:18:32;11.90;57.20
11647;DHT22;5880;52.342;9.662;2024-03-02T00:21:00;11.90;57.30
11647;DHT22;5880;52.342;9.662;2024-03-02T00:23:33;11.80;56.90
11647;DHT22;5880;52.342;9.662;2024-03-02T00:26:00;11.90;57.50
11647;DHT22;5880;52.342;9.662;2024-03-02T00:28:36;11.80;57.10
11647;DHT22;5880;52.342;9.662;2024-03-02T00:31:09;11.80;57.50
11647;DHT22;5880;52.342;9.662;2024-03-02T00:33:47;11.80;57.50
11647;DHT22;5880;52.342;9.662;2024-03-02T00:36:25;11.80;57.50
11647;DHT22;5880;52.342;9.662;2024-03-02T00:38:53;11.80;57.50
11647;DHT22;5880;52.342;9.662;2024-03-02T00:44:03;11.80;57.20
11647;DHT22;5880;52.342;9.662;2024-03-02T00:46:35;11.80;57.70
11647;DHT22;5880;52.342;9.662;2024-03-02T00:49:23;11.80;57.60
11647;DHT22;5880;52.342;9.662;2024-03-02T00:51:51;11.70;57.70
11647;DHT22;5880;52.342;9.662;2024-03-02T00:54:22;11.80;57.40
11647;DHT22;5880;52.342;9.662;2024-03-02T00:56:50;11.80;57.60
11647;DHT22;5880;52.342;9.662;2024-03-02T00:59:16;11.70;57.40
11647;DHT22;5880;52.342;9.662;2024-03-02T01:01:42;11.70;57.50
11647;DHT22;5880;52.342;9.662;2024-03-02T01:04:08;11.70;57.60
11647;DHT22;5880;52.342;9.662;2024-03-02T01:06:35;11.70;57.60
11647;DHT22;5880;52.342;9.662;2024-03-02T01:09:01;11.70;57.60
11647;DHT22;5880;52.342;9.662;2024-03-02T01:11:28;11.70;57.60
11647;DHT22;5880;52.342;9.662;2024-03-02T01:13:53;11.80;58.30
11647;DHT22;5880;52.342;9.662;2024-03-02T01:16:19;11.80;57.60
11647;DHT22;5880;52.342;9.662;2024-03-02T01:18:45;11.70;57.60
11647;DHT22;5880;52.342;9.662;2024-03-02T01:21:11;11.70;57.70
11647;DHT22;5880;52.342;9.662;2024-03-02T01:23:36;11.70;57.60
11647;DHT22;5880;52.342;9.662;2024-03-02T01:26:03;11.70;57.70
11647;DHT22;5880;52.342;9.662;2024-03-02T01:28:28;11.70;57.70
11647;DHT22;5880;52.342;9.662;2024-03-02T01:30:54;11.70;57.70
11647;DHT22;5880;52.342;9.662;2024-03-02T01:33:20;11.70;57.80
11647;DHT22;5880;52.342;9.662;2024-03-02T01:35:46;11.70;57.80
11647;DHT22;5880;52.342;9.662;2024-03-02T01:38:12;11.70;57.70
11647;DHT22;5880;52.342;9.662;2024-03-02T01:40:38;11.80;57.70
11647;DHT22;5880;52.342;9.662;2024-03-02T01:43:05;11.80;57.80
11647;DHT22;5880;52.342;9.662;2024-03-02T01:45:31;11.80;57.80
11647;DHT22;5880;52.342;9.662;2024-03-02T01:47:57;11.80;57.90
11647;DHT22;5880;52.342;9.662;2024-03-02T01:50:31;11.80;57.90
11647;DHT22;5880;52.342;9.662;2024-03-02T01:52:58;11.80;58.30
11647;DHT22;5880;52.342;9.662;2024-03-02T01:55:24;11.80;57.90
11647;DHT22;5880;52.342;9.662;2024-03-02T01:57:51;11.80;57.90
11647;DHT22;5880;52.342;9.662;2024-03-02T02:00:18;11.70;58.10
11647;DHT22;5880;52.342;9.662;2024-03-02T02:02:45;11.80;58.10
11647;DHT22;5880;52.342;9.662;2024-03-02T02:05:14;11.70;58.10
11647;DHT22;5880;52.342;9.662;2024-03-02T02:07:41;11.70;58.10
11647;DHT22;5880;52.342;9.662;2024-03-02T02:10:07;11.80;58.20
11647;DHT22;5880;52.342;9.662;2024-03-02T02:12:33;11.70;58.10
11647;DHT22;5880;52.342;9.662;2024-03-02T02:14:59;11.70;58.10
11647;DHT22;5880;52.342;9.662;2024-03-02T02:17:25;11.70;58.20
11647;DHT22;5880;52.342;9.662;2024-03-02T02:19:51;11.70;58.20
11647;DHT22;5880;52.342;9.662;2024-03-02T02:22:16;11.70;58.20
11647;DHT22;5880;52.342;9.662;2024-03-02T02:24:42;11.70;58.20
11647;DHT22;5880;52.342;9.662;2024-03-02T02:27:08;11.70;58.20
11647;DHT22;5880;52.342;9.662;2024-03-02T02:29:35;11.60;58.20
11647;DHT22;5880;52.342;9.662;2024-03-02T02:32:01;11.70;58.30
11647;DHT22;5880;52.342;9.662;2024-03-02T02:34:27;11.70;58.40
11647;DHT22;5880;52.342;9.662;2024-03-02T02:36:53;11.70;58.50
11647;DHT22;5880;52.342;9.662;2024-03-02T02:39:21;11.70;58.50
11647;DHT22;5880;52.342;9.662;2024-03-02T02:41:50;11.60;58.50
11647;DHT22;5880;52.342;9.662;2024-03-02T02:44:16;11.60;58.40
11647;DHT22;5880;52.342;9.662;2024-03-02T02:46:41;11.60;58.40
11647;DHT22;5880;52.342;9.662;2024-03-02T02:49:07;11.70;58.60
11647;DHT22;5880;52.342;9.662;2024-03-02T02:51:33;11.60;58.50
11647;DHT22;5880;52.342;9.662;2024-03-02T02:53:59;12.10;58.80
11647;DHT22;5880;52.342;9.662;2024-03-02T02:56:24;11.60;58.50
11647;DHT22;5880;52.342;9.662;2024-03-02T02:58:50;11.60;58.50
11647;DHT22;5880;52.342;9.662;2024-03-02T03:01:16;11.60;58.60
11647;DHT22;5880;52.342;9.662;2024-03-02T03:03:46;11.60;58.50
11647;DHT22;5880;52.342;9.662;2024-03-02T03:06:12;11.60;58.50
11647;DHT22;5880;52.342;9.662;2024-03-02T03:08:38;11.60;58.50
11647;DHT22;5880;52.342;9.662;2024-03-02T03:11:04;11.50;58.40
11647;DHT22;5880;52.342;9.662;2024-03-02T03:13:34;11.60;58.40
11647;DHT22;5880;52.342;9.662;2024-03-02T03:16:00;11.50;58.60
11647;DHT22;5880;52.342;9.662;2024-03-02T03:18:25;11.50;58.30
11647;DHT22;5880;52.342;9.662;2024-03-02T03:20:51;11.50;58.30
11647;DHT22;5880;52.342;9.662;2024-03-02T03:23:17;11.50;58.30
11647;DHT22;5880;52.342;9.662;2024-03-02T03:25:43;11.40;58.20
11647;DHT22;5880;52.342;9.662;2024-03-02T03:28:09;11.40;58.20
11647;DHT22;5880;52.342;9.662;2024-03-02T03:30:39;11.40;58.20
11647;DHT22;5880;52.342;9.662;2024-03-02T03:33:05;11.30;58.30
11647;DHT22;5880;52.342;9.662;2024-03-02T03:35:32;11.30;58.30
11647;DHT22;5880;52.342;9.662;2024-03-02T03:37:57;11.40;58.20
11647;DHT22;5880;52.342;9.662;2024-03-02T03:40:23;11.30;58.30
11647;DHT22;5880;52.342;9.662;2024-03-02T03:42:49;11.20;58.20
11647;DHT22;5880;52.342;9.662;2024-03-02T03:45:16;11.20;58.20
11647;DHT22;5880;52.342;9.662;2024-03-02T03:47:41;11.10;58.30
11647;DHT22;5880;52.342;9.662;2024-03-02T03:50:07;11.10;58.30
11647;DHT22;5880;52.342;9.662;2024-03-02T03:52:33;11.10;58.40
11647;DHT22;5880;52.342;9.662;2024-03-02T03:54:59;11.10;58.40
11647;DHT22;5880;52.342;9.662;2024-03-02T03:57:26;11.10;58.60
11647;DHT22;5880;52.342;9.662;2024-03-02T03:59:52;11.00;58.50
11647;DHT22;5880;52.342;9.662;2024-03-02T04:02:19;11.00;58.50
11647;DHT22;5880;52.342;9.662;2024-03-02T04:04:44;11.00;58.60
11647;DHT22;5880;52.342;9.662;2024-03-02T04:07:10;11.00;58.70
11647;DHT22;5880;52.342;9.662;2024-03-02T04:09:36;11.00;59.50
11647;DHT22;5880;52.342;9.662;2024-03-02T04:12:01;11.00;58.90
11647;DHT22;5880;52.342;9.662;2024-03-02T04:14:27;11.00;58.70
11647;DHT22;5880;52.342;9.662;2024-03-02T04:16:53;11.00;58.80
11647;DHT22;5880;52.342;9.662;2024-03-02T04:19:18;10.90;58.70
11647;DHT22;5880;52.342;9.662;2024-03-02T04:21:44;10.90;58.80
11647;DHT22;5880;52.342;9.662;2024-03-02T04:24:09;10.90;58.90
11647;DHT22;5880;52.342;9.662;2024-03-02T04:26:35;10.90;59.60
11647;DHT22;5880;52.342;9.662;2024-03-02T04:29:01;10.90;58.80
11647;DHT22;5880;52.342;9.662;2024-03-02T04:31:27;10.90;58.80
11647;DHT22;5880;52.342;9.662;2024-03-02T04:33:52;10.90;58.80
11647;DHT22;5880;52.342;9.662;2024-03-02T04:36:19;10.90;58.80
11647;DHT22;5880;52.342;9.662;2024-03-02T04:38:46;10.90;58.90
11647;DHT22;5880;52.342;9.662;2024-03-02T04:41:12;10.90;59.00
11647;DHT22;5880;52.342;9.662;2024-03-02T04:43:37;10.90;59.00
11647;DHT22;5880;52.342;9.662;2024-03-02T04:46:03;10.90;59.00
11647;DHT22;5880;52.342;9.662;2024-03-02T04:48:29;10.80;59.00
11647;DHT22;5880;52.342;9.662;2024-03-02T04:50:54;10.80;59.00
11647;DHT22;5880;52.342;9.662;2024-03-02T04:53:20;10.80;59.00
11647;DHT22;5880;52.342;9.662;2024-03-02T04:55:46;10.80;59.00
11647;DHT22;5880;52.342;9.662;2024-03-02T04:58:31;10.80;58.90
11647;DHT22;5880;52.342;9.662;2024-03-02T05:00:57;10.80;58.90
11647;DHT22;5880;52.342;9.662;2024-03-02T05:03:23;10.70;58.90
11647;DHT22;5880;52.342;9.662;2024-03-02T05:05:49;10.70;59.10
11647;DHT22;5880;52.342;9.662;2024-03-02T05:08:15;10.80;59.10
11647;DHT22;5880;52.342;9.662;2024-03-02T05:10:42;10.70;59.20
11647;DHT22;5880;52.342;9.662;2024-03-02T05:13:07;10.60;59.20
11647;DHT22;5880;52.342;9.662;2024-03-02T05:15:33;10.60;59.20
11647;DHT22;5880;52.342;9.662;2024-03-02T05:17:59;10.60;59.20
11647;DHT22;5880;52.342;9.662;2024-03-02T05:20:25;10.60;59.30
11647;DHT22;5880;52.342;9.662;2024-03-02T05:22:51;10.60;59.30
11647;DHT22;5880;52.342;9.662;2024-03-02T05:25:16;10.50;59.40
11647;DHT22;5880;52.342;9.662;2024-03-02T05:27:42;10.60;59.40
11647;DHT22;5880;52.342;9.662;2024-03-02T05:30:08;10.50;59.40
11647;DHT22;5880;52.342;9.662;2024-03-02T05:32:34;10.50;59.40
11647;DHT22;5880;52.342;9.662;2024-03-02T05:35:00;10.50;59.40
11647;DHT22;5880;52.342;9.662;2024-03-02T05:37:25;10.50;59.40
11647;DHT22;5880;52.342;9.662;2024-03-02T05:39:51;10.50;59.40
11647;DHT22;5880;52.342;9.662;2024-03-02T05:42:17;10.40;59.20
11647;DHT22;5880;52.342;9.662;2024-03-02T05:44:43;10.40;59.40
11647;DHT22;5880;52.342;9.662;2024-03-02T05:47:08;10.40;59.50
11647;DHT22;5880;52.342;9.662;2024-03-02T05:49:34;10.40;59.60
11647;DHT22;5880;52.342;9.662;2024-03-02T05:52:00;10.40;59.70
11647;DHT22;5880;52.342;9.662;2024-03-02T05:54:26;10.30;59.80
11647;DHT22;5880;52.342;9.662;2024-03-02T05:56:51;10.30;60.00
11647;DHT22;5880;52.342;9.662;2024-03-02T05:59:17;10.30;60.20
11647;DHT22;5880;52.342;9.662;2024-03-02T06:01:46;10.30;60.20
11647;DHT22;5880;52.342;9.662;2024-03-02T06:04:13;10.40;60.40
11647;DHT22;5880;52.342;9.662;2024-03-02T06:06:42;10.40;60.40
11647;DHT22;5880;52.342;9.662;2024-03-02T06:09:08;10.30;60.60
11647;DHT22;5880;52.342;9.662;2024-03-02T06:11:38;10.30;60.40
11647;DHT22;5880;52.342;9.662;2024-03-02T06:14:07;10.40;60.70
11647;DHT22;5880;52.342;9.662;2024-03-02T06:16:34;10.30;60.50
11647;DHT22;5880;52.342;9.662;2024-03-02T06:19:00;10.30;60.50
11647;DHT22;5880;52.342;9.662;2024-03-02T06:21:27;10.30;60.50
11647;DHT22;5880;52.342;9.662;2024-03-02T06:23:53;10.40;60.70
11647;DHT22;5880;52.342;9.662;2024-03-02T06:26:19;10.40;60.70
11647;DHT22;5880;52.342;9.662;2024-03-02T06:28:45;10.40;60.70
11647;DHT22;5880;52.342;9.662;2024-03-02T06:31:11;10.40;61.60
11647;DHT22;5880;52.342;9.662;2024-03-02T06:33:38;10.40;60.90
11647;DHT22;5880;52.342;9.662;2024-03-02T06:36:04;10.40;61.10
11647;DHT22;5880;52.342;9.662;2024-03-02T06:38:30;10.50;61.20
11647;DHT22;5880;52.342;9.662;2024-03-02T06:40:57;10.50;61.30
11647;DHT22;5880;52.342;9.662;2024-03-02T06:43:23;10.60;61.40
11647;DHT22;5880;52.342;9.662;2024-03-02T06:45:50;10.50;61.40
11647;DHT22;5880;52.342;9.662;2024-03-02T06:48:16;10.60;61.40
11647;DHT22;5880;52.342;9.662;2024-03-02T06:50:46;10.70;61.50
11647;DHT22;5880;52.342;9.662;2024-03-02T06:53:13;10.70;61.60
11647;DHT22;5880;52.342;9.662;2024-03-02T06:55:39;10.70;61.60
11647;DHT22;5880;52.342;9.662;2024-03-02T06:58:04;10.80;61.60
11647;DHT22;5880;52.342;9.662;2024-03-02T07:00:30;10.80;61.80
11647;DHT22;5880;52.342;9.662;2024-03-02T07:02:56;10.90;62.10
11647;DHT22;5880;52.342;9.662;2024-03-02T07:05:21;11.00;62.00
11647;DHT22;5880;52.342;9.662;2024-03-02T07:07:47;11.10;61.90
11647;DHT22;5880;52.342;9.662;2024-03-02T07:10:13;11.10;61.70
11647;DHT22;5880;52.342;9.662;2024-03-02T07:12:39;11.20;61.70
11647;DHT22;5880;52.342;9.662;2024-03-02T07:15:05;11.30;61.70
11647;DHT22;5880;52.342;9.662;2024-03-02T07:17:31;11.30;61.70
11647;DHT22;5880;52.342;9.662;2024-03-02T07:19:57;11.30;61.70
11647;DHT22;5880;52.342;9.662;2024-03-02T07:22:23;11.40;61.80
11647;DHT22;5880;52.342;9.662;2024-03-02T07:24:49;11.50;62.10
11647;DHT22;5880;52.342;9.662;2024-03-02T07:27:16;11.60;62.60
11647;DHT22;5880;52.342;9.662;2024-03-02T07:29:43;11.70;62.60
11647;DHT22;5880;52.342;9.662;2024-03-02T07:32:09;11.80;62.60
11647;DHT22;5880;52.342;9.662;2024-03-02T07:34:36;12.00;63.00
11647;DHT22;5880;52.342;9.662;2024-03-02T07:37:03;12.20;63.30
11647;DHT22;5880;52.342;9.662;2024-03-02T07:39:29;12.30;63.50
11647;DHT22;5880;52.342;9.662;2024-03-02T07:41:56;12.50;63.80
11647;DHT22;5880;52.342;9.662;2024-03-02T07:44:21;12.80;64.20
11647;DHT22;5880;52.342;9.662;2024-03-02T07:46:48;13.10;64.10
11647;DHT22;5880;52.342;9.662;2024-03-02T07:49:17;13.20;63.60
11647;DHT22;5880;52.342;9.662;2024-03-02T07:51:44;13.50;62.90
11647;DHT22;5880;52.342;9.662;2024-03-02T07:54:10;13.60;61.60
11647;DHT22;5880;52.342;9.662;2024-03-02T07:56:36;13.70;60.80
11647;DHT22;5880;52.342;9.662;2024-03-02T07:59:02;14.40;60.40
11647;DHT22;5880;52.342;9.662;2024-03-02T08:01:29;13.70;59.70
11647;DHT22;5880;52.342;9.662;2024-03-02T08:03:58;13.70;59.30
11647;DHT22;5880;52.342;9.662;2024-03-02T08:06:26;13.70;59.10
11647;DHT22;5880;52.342;9.662;2024-03-02T08:08:55;13.60;58.90
11647;DHT22;5880;52.342;9.662;2024-03-02T08:11:22;13.60;58.90
11647;DHT22;5880;52.342;9.662;2024-03-02T08:13:48;13.50;59.00
11647;DHT22;5880;52.342;9.662;2024-03-02T08:16:16;13.50;59.00
11647;DHT22;5880;52.342;9.662;2024-03-02T08:18:45;13.50;59.00
11647;DHT22;5880;52.342;9.662;2024-03-02T08:21:12;13.40;59.10
11647;DHT22;5880;52.342;9.662;2024-03-02T08:23:38;13.40;59.20
11647;DHT22;5880;52.342;9.662;2024-03-02T08:26:06;13.40;59.30
11647;DHT22;5880;52.342;9.662;2024-03-02T08:28:32;13.30;59.30
11647;DHT22;5880;52.342;9.662;2024-03-02T08:30:58;13.30;59.50
11647;DHT22;5880;52.342;9.662;2024-03-02T08:33:24;13.40;59.50
11647;DHT22;5880;52.342;9.662;2024-03-02T08:35:49;13.40;59.50
11647;DHT22;5880;52.342;9.662;2024-03-02T08:38:15;13.40;59.60
11647;DHT22;5880;52.342;9.662;2024-03-02T08:40:41;13.40;59.60
11647;DHT22;5880;52.342;9.662;2024-03-02T08:43:07;13.40;59.50
11647;DHT22;5880;52.342;9.662;2024-03-02T08:45:33;13.40;59.50
11647;DHT22;5880;52.342;9.662;2024-03-02T08:47:59;13.50;59.60
11647;DHT22;5880;52.342;9.662;2024-03-02T08:50:25;13.50;59.70
11647;DHT22;5880;52.342;9.662;2024-03-02T08:52:51;13.50;59.70
11647;DHT22;5880;52.342;9.662;2024-03-02T08:55:17;13.60;59.70
11647;DHT22;5880;52.342;9.662;2024-03-02T08:57:42;13.60;59.70
11647;DHT22;5880;52.342;9.662;2024-03-02T09:00:09;13.70;59.60
11647;DHT22;5880;52.342;9.662;2024-03-02T09:02:35;13.70;59.50
11647;DHT22;5880;52.342;9.662;2024-03-02T09:05:01;13.80;59.40
11647;DHT22;5880;52.342;9.662;2024-03-02T09:07:27;13.80;59.40
11647;DHT22;5880;52.342;9.662;2024-03-02T09:09:52;13.90;59.30
11647;DHT22;5880;52.342;9.662;2024-03-02T09:12:18;13.90;59.20
11647;DHT22;5880;52.342;9.662;2024-03-02T09:14:45;13.90;59.20
11647;DHT22;5880;52.342;9.662;2024-03-02T09:17:12;13.90;59.40
11647;DHT22;5880;52.342;9.662;2024-03-02T09:19:38;14.00;59.10
11647;DHT22;5880;52.342;9.662;2024-03-02T09:22:04;14.00;59.20
11647;DHT22;5880;52.342;9.662;2024-03-02T09:24:33;14.00;59.10
11647;DHT22;5880;52.342;9.662;2024-03-02T09:26:59;14.00;58.90
11647;DHT22;5880;52.342;9.662;2024-03-02T09:29:25;14.10;58.80
11647;DHT22;5880;52.342;9.662;2024-03-02T09:31:51;14.10;58.80
11647;DHT22;5880;52.342;9.662;2024-03-02T09:34:17;14.10;58.80
11647;DHT22;5880;52.342;9.662;2024-03-02T09:36:43;14.20;58.80
11647;DHT22;5880;52.342;9.662;2024-03-02T09:39:09;14.20;58.80
11647;DHT22;5880;52.342;9.662;2024-03-02T09:41:36;14.20;58.60
11647;DHT22;5880;52.342;9.662;2024-03-02T09:44:03;14.20;58.50
11647;DHT22;5880;52.342;9.662;2024-03-02T09:46:30;14.20;58.50
11647;DHT22;5880;52.342;9.662;2024-03-02T09:48:56;14.20;58.40
11647;DHT22;5880;52.342;9.662;2024-03-02T09:51:22;14.20;58.20
11647;DHT22;5880;52.342;9.662;2024-03-02T09:53:49;14.20;58.20
11647;DHT22;5880;52.342;9.662;2024-03-02T09:56:15;14.20;58.20
11647;DHT22;5880;52.342;9.662;2024-03-02T09:58:41;14.20;58.40
11647;DHT22;5880;52.342;9.662;2024-03-02T10:01:08;14.20;58.60
11647;DHT22;5880;52.342;9.662;2024-03-02T10:03:36;14.20;58.70
11647;DHT22;5880;52.342;9.662;2024-03-02T10:06:22;14.20;58.70
11647;DHT22;5880;52.342;9.662;2024-03-02T10:08:52;14.20;58.10
11647;DHT22;5880;52.342;9.662;2024-03-02T10:11:33;14.30;58.90
11647;DHT22;5880;52.342;9.662;2024-03-02T10:16:39;14.50;59.00
11647;DHT22;5880;52.342;9.662;2024-03-02T10:19:36;14.50;59.50
11647;DHT22;5880;52.342;9.662;2024-03-02T10:22:05;14.70;57.80
11647;DHT22;5880;52.342;9.662;2024-03-02T10:24:37;14.90;59.70
11647;DHT22;5880;52.342;9.662;2024-03-02T10:27:15;15.10;58.60
11647;DHT22;5880;52.342;9.662;2024-03-02T10:29:49;15.30;58.60
11647;DHT22;5880;52.342;9.662;2024-03-02T10:32:15;15.50;58.90
11647;DHT22;5880;52.342;9.662;2024-03-02T10:34:44;15.70;58.50
11647;DHT22;5880;52.342;9.662;2024-03-02T10:37:11;15.80;57.10
11647;DHT22;5880;52.342;9.662;2024-03-02T10:39:37;16.00;57.40
11647;DHT22;5880;52.342;9.662;2024-03-02T10:42:08;16.00;56.40
11647;DHT22;5880;52.342;9.662;2024-03-02T10:44:34;16.10;56.10
11647;DHT22;5880;52.342;9.662;2024-03-02T10:47:04;16.10;54.40
11647;DHT22;5880;52.342;9.662;2024-03-02T10:49:32;16.20;54.00
11647;DHT22;5880;52.342;9.662;2024-03-02T10:52:01;16.10;54.20
11647;DHT22;5880;52.342;9.662;2024-03-02T10:54:27;16.10;53.60
11647;DHT22;5880;52.342;9.662;2024-03-02T10:56:58;16.00;53.80
11647;DHT22;5880;52.342;9.662;2024-03-02T11:02:01;15.90;53.80
11647;DHT22;5880;52.342;9.662;2024-03-02T11:04:29;15.90;54.20
11647;DHT22;5880;52.342;9.662;2024-03-02T11:07:02;15.90;54.40
11647;DHT22;5880;52.342;9.662;2024-03-02T11:09:33;15.80;52.70
11647;DHT22;5880;52.342;9.662;2024-03-02T11:12:09;15.80;53.50
11647;DHT22;5880;52.342;9.662;2024-03-02T11:14:41;15.70;54.00
11647;DHT22;5880;52.342;9.662;2024-03-02T11:17:12;15.70;54.50
11647;DHT22;5880;52.342;9.662;2024-03-02T11:19:41;15.70;54.50
11647;DHT22;5880;52.342;9.662;2024-03-02T11:22:08;15.70;55.00
11647;DHT22;5880;52.342;9.662;2024-03-02T11:24:35;15.70;54.80
11647;DHT22;5880;52.342;9.662;2024-03-02T11:27:03;15.60;54.70
11647;DHT22;5880;52.342;9.662;2024-03-02T11:32:06;15.60;55.20
11647;DHT22;5880;52.342;9.662;2024-03-02T11:34:41;15.60;54.10
11647;DHT22;5880;52.342;9.662;2024-03-02T11:37:12;15.60;54.70
11647;DHT22;5880;52.342;9.662;2024-03-02T11:39:39;15.60;54.40
11647;DHT22;5880;52.342;9.662;2024-03-02T11:42:08;15.60;54.30
11647;DHT22;5880;52.342;9.662;2024-03-02T11:44:37;15.60;54.20
11647;DHT22;5880;52.342;9.662;2024-03-02T11:47:08;15.60;53.90
11647;DHT22;5880;52.342;9.662;2024-03-02T11:49:40;15.60;53.40
11647;DHT22;5880;52.342;9.662;2024-03-02T11:52:12;15.60;53.60
11647;DHT22;5880;52.342;9.662;2024-03-02T11:54:40;15.70;54.30
11647;DHT22;5880;52.342;9.662;2024-03-02T11:57:12;15.70;54.60
11647;DHT22;5880;52.342;9.662;2024-03-02T11:59:40;15.70;54.80
11647;DHT22;5880;52.342;9.662;2024-03-02T12:02:06;15.70;54.70
11647;DHT22;5880;52.342;9.662;2024-03-02T12:04:32;15.80;54.60
11647;DHT22;5880;52.342;9.662;2024-03-02T12:07:00;15.70;54.70
11647;DHT22;5880;52.342;9.662;2024-03-02T12:09:27;15.80;54.80
11647;DHT22;5880;52.342;9.662;2024-03-02T12:12:07;15.80;54.40
11647;DHT22;5880;52.342;9.662;2024-03-02T12:14:35;15.90;53.10
11647;DHT22;5880;52.342;9.662;2024-03-02T12:17:02;15.90;54.10
11647;DHT22;5880;52.342;9.662;2024-03-02T12:19:29;15.90;53.90
11647;DHT22;5880;52.342;9.662;2024-03-02T12:21:56;15.90;53.50
11647;DHT22;5880;52.342;9.662;2024-03-02T12:24:23;15.90;53.80
11647;DHT22;5880;52.342;9.662;2024-03-02T12:26:50;16.00;53.80
11647;DHT22;5880;52.342;9.662;2024-03-02T12:29:21;16.00;53.30
11647;DHT22;5880;52.342;9.662;2024-03-02T12:31:52;16.00;53.10
11647;DHT22;5880;52.342;9.662;2024-03-02T12:34:18;16.10;53.80
11647;DHT22;5880;52.342;9.662;2024-03-02T12:36:45;16.20;54.10
11647;DHT22;5880;52.342;9.662;2024-03-02T12:39:18;16.20;53.60
11647;DHT22;5880;52.342;9.662;2024-03-02T12:41:45;16.30;53.90
11647;DHT22;5880;52.342;9.662;2024-03-02T12:44:11;16.40;53.30
11647;DHT22;5880;52.342;9.662;2024-03-02T12:46:37;16.40;53.00
11647;DHT22;5880;52.342;9.662;2024-03-02T12:49:10;16.40;53.20
11647;DHT22;5880;52.342;9.662;2024-03-02T12:51:38;16.50;52.10
11647;DHT22;5880;52.342;9.662;2024-03-02T12:54:09;16.60;52.90
11647;DHT22;5880;52.342;9.662;2024-03-02T12:56:37;16.60;52.30
11647;DHT22;5880;52.342;9.662;2024-03-02T12:59:03;16.70;52.30
11647;DHT22;5880;52.342;9.662;2024-03-02T13:01:30;16.70;52.50
11647;DHT22;5880;52.342;9.662;2024-03-02T13:03:58;16.80;51.80
11647;DHT22;5880;52.342;9.662;2024-03-02T13:06:25;16.70;51.60
11647;DHT22;5880;52.342;9.662;2024-03-02T13:08:54;16.80;51.60
11647;DHT22;5880;52.342;9.662;2024-03-02T13:11:22;16.80;51.80
11647;DHT22;5880;52.342;9.662;2024-03-02T13:13:50;16.80;51.10
11647;DHT22;5880;52.342;9.662;2024-03-02T13:16:16;16.80;51.20
11647;DHT22;5880;52.342;9.662;2024-03-02T13:18:44;16.80;50.50
11647;DHT22;5880;52.342;9.662;2024-03-02T13:21:10;16.80;50.70
11647;DHT22;5880;52.342;9.662;2024-03-02T13:23:36;16.90;50.40
11647;DHT22;5880;52.342;9.662;2024-03-02T13:26:02;16.90;50.40
11647;DHT22;5880;52.342;9.662;2024-03-02T13:28:28;16.90;50.90
11647;DHT22;5880;52.342;9.662;2024-03-02T13:30:54;16.90;50.50
11647;DHT22;5880;52.342;9.662;2024-03-02T13:33:20;16.90;50.30
11647;DHT22;5880;52.342;9.662;2024-03-02T13:35:49;16.90;50.60
11647;DHT22;5880;52.342;9.662;2024-03-02T13:38:17;16.90;50.90
11647;DHT22;5880;52.342;9.662;2024-03-02T13:40:44;17.00;49.90
11647;DHT22;5880;52.342;9.662;2024-03-02T13:43:10;16.90;49.80
11647;DHT22;5880;52.342;9.662;2024-03-02T13:45:37;16.90;50.00
11647;DHT22;5880;52.342;9.662;2024-03-02T13:48:03;16.90;49.50
11647;DHT22;5880;52.342;9.662;2024-03-02T13:50:29;16.90;49.60
11647;DHT22;5880;52.342;9.662;2024-03-02T13:52:56;16.90;49.70
11647;DHT22;5880;52.342;9.662;2024-03-02T13:55:22;16.90;49.80
11647;DHT22;5880;52.342;9.662;2024-03-02T13:57:48;16.90;49.80
11647;DHT22;5880;52.342;9.662;2024-03-02T14:00:15;16.90;49.70
11647;DHT22;5880;52.342;9.662;2024-03-02T14:02:46;16.90;49.60
11647;DHT22;5880;52.342;9.662;2024-03-02T14:05:12;16.90;49.30
11647;DHT22;5880;52.342;9.662;2024-03-02T14:07:39;16.90;49.30
11647;DHT22;5880;52.342;9.662;2024-03-02T14:10:06;16.80;48.90
11647;DHT22;5880;52.342;9.662;2024-03-02T14:12:33;16.80;49.00
11647;DHT22;5880;52.342;9.662;2024-03-02T14:14:58;16.80;49.30
11647;DHT22;5880;52.342;9.662;2024-03-02T14:17:25;16.80;49.20
11647;DHT22;5880;52.342;9.662;2024-03-02T14:19:50;16.70;49.20
11647;DHT22;5880;52.342;9.662;2024-03-02T14:22:19;16.80;49.30
11647;DHT22;5880;52.342;9.662;2024-03-02T14:24:45;16.70;49.50
11647;DHT22;5880;52.342;9.662;2024-03-02T14:27:11;16.70;49.20
11647;DHT22;5880;52.342;9.662;2024-03-02T14:29:37;16.80;49.40
11647;DHT22;5880;52.342;9.662;2024-03-02T14:32:05;16.80;49.10
11647;DHT22;5880;52.342;9.662;2024-03-02T14:34:31;16.80;49.30
11647;DHT22;5880;52.342;9.662;2024-03-02T14:36:56;16.80;49.90
11647;DHT22;5880;52.342;9.662;2024-03-02T14:39:22;16.80;49.10
11647;DHT22;5880;52.342;9.662;2024-03-02T14:41:48;16.80;48.90
11647;DHT22;5880;52.342;9.662;2024-03-02T14:44:14;16.80;49.10
11647;DHT22;5880;52.342;9.662;2024-03-02T14:46:40;16.80;49.10
11647;DHT22;5880;52.342;9.662;2024-03-02T14:49:07;16.80;48.90
11647;DHT22;5880;52.342;9.662;2024-03-02T14:51:33;16.90;48.40
11647;DHT22;5880;52.342;9.662;2024-03-02T14:53:59;16.90;48.80
11647;DHT22;5880;52.342;9.662;2024-03-02T14:56:24;16.90;48.90
11647;DHT22;5880;52.342;9.662;2024-03-02T14:58:50;16.90;48.70
11647;DHT22;5880;52.342;9.662;2024-03-02T15:01:16;16.90;48.40
11647;DHT22;5880;52.342;9.662;2024-03-02T15:03:43;16.90;48.40
11647;DHT22;5880;52.342;9.662;2024-03-02T15:06:09;16.90;48.60
11647;DHT22;5880;52.342;9.662;2024-03-02T15:08:35;16.90;48.50
11647;DHT22;5880;52.342;9.662;2024-03-02T15:11:01;16.90;48.50
11647;DHT22;5880;52.342;9.662;2024-03-02T15:13:27;17.00;48.30
11647;DHT22;5880;52.342;9.662;2024-03-02T15:15:53;17.00;47.90
11647;DHT22;5880;52.342;9.662;2024-03-02T15:18:18;16.90;47.70
11647;DHT22;5880;52.342;9.662;2024-03-02T15:20:44;16.90;47.30
11647;DHT22;5880;52.342;9.662;2024-03-02T15:23:10;16.90;47.40
11647;DHT22;5880;52.342;9.662;2024-03-02T15:25:35;17.00;47.40
11647;DHT22;5880;52.342;9.662;2024-03-02T15:28:01;17.00;47.30
11647;DHT22;5880;52.342;9.662;2024-03-02T15:30:27;17.00;47.40
11647;DHT22;5880;52.342;9.662;2024-03-02T15:32:53;17.00;47.10
11647;DHT22;5880;52.342;9.662;2024-03-02T15:35:18;17.00;47.00
11647;DHT22;5880;52.342;9.662;2024-03-02T15:37:44;17.00;48.30
11647;DHT22;5880;52.342;9.662;2024-03-02T15:40:10;16.90;47.50
11647;DHT22;5880;52.342;9.662;2024-03-02T15:42:36;17.00;47.50
11647;DHT22;5880;52.342;9.662;2024-03-02T15:45:02;16.90;47.30
11647;DHT22;5880;52.342;9.662;2024-03-02T15:47:29;16.90;47.20
11647;DHT22;5880;52.342;9.662;2024-03-02T15:49:55;16.90;48.20
11647;DHT22;5880;52.342;9.662;2024-03-02T15:52:21;16.90;47.30
11647;DHT22;5880;52.342;9.662;2024-03-02T15:54:47;16.90;47.40